MSC Maria Saveria — 3FLE8 — position and weather

sailwx.info

Track history (hours):
 
Tides and Currents Weather Stations Pressure Air Temp Water Temp Dewpoint Dewpoint Depression Visibility Wind Speed Wind Dir Waves Ship Positions

MSC Maria Saveria

Last reported at 2017-Nov-19 19:55 UTC. Time now 2017-Nov-22 03:40 UTC.
Position N 42°38' W 010°08'.

Length 366 m; draft 15.2 m.

Type: Ship (hazmat cat A). MMSI: 372400000.

Date/timePositionNaut miles runAvg speedWind from/ knotsBaromVisibWave heightAir tempDewpointWater temp
2017-Nov-19 19:55N 42°38' W 010°08'920.2
2017-Nov-19 19:29N 42°46' W 010°07'26519.5
2017-Nov-19 05:52N 46°47' W 007°29'1022.1
2017-Nov-19 05:24N 46°56' W 007°22'615.8
2017-Nov-19 05:00N 47°01' W 007°17'919.1
2017-Nov-19 04:30N 47°09' W 007°11'1119.6
2017-Nov-19 03:56N 47°19' W 007°03'818.8
2017-Nov-19 03:29N 47°27' W 006°57'918.4
2017-Nov-19 03:00N 47°34' W 006°50'918.0
2017-Nov-19 02:29N 47°43' W 006°44'917.9
2017-Nov-19 02:00N 47°50' W 006°38'917.9
2017-Nov-19 01:30N 47°58' W 006°32'918.1
2017-Nov-19 00:59N 48°07' W 006°26'918.4
2017-Nov-19 00:30N 48°15' W 006°19'1018.9
2017-Nov-18 23:59N 48°23' W 006°12'919.4
2017-Nov-18 23:30N 48°32' W 006°06'1019.9
2017-Nov-18 23:00N 48°40' W 005°59'1020.0
2017-Nov-18 22:30N 48°49' W 005°52'1019.9
2017-Nov-18 22:00N 48°56' W 005°42'1220.3
2017-Nov-18 21:24N 49°03' W 005°26'1420.1
2017-Nov-18 20:42N 49°10' W 005°08'520.0
2017-Nov-18 20:26N 49°13' W 005°01'919.6
2017-Nov-18 20:00N 49°18' W 004°50'1019.0
2017-Nov-18 19:27N 49°23' W 004°36'1118.5
2017-Nov-18 18:53N 49°29' W 004°22'817.8
2017-Nov-18 18:27N 49°32' W 004°12'817.5
2017-Nov-18 17:58N 49°36' W 004°00'1121.7
2017-Nov-18 17:26N 49°43' W 003°46'511.7
2017-Nov-18 17:00N 49°45' W 003°39'917.4
2017-Nov-18 16:30N 49°49' W 003°27'917.8
2017-Nov-18 16:00N 49°54' W 003°15'918.5
2017-Nov-18 15:30N 49°58' W 003°03'1019.4
2017-Nov-18 15:00N 50°01' W 002°48'1120.4
2017-Nov-18 14:29N 50°04' W 002°32'1121.4
2017-Nov-18 13:59N 50°07' W 002°16'1021.8
2017-Nov-18 13:30N 50°09' W 002°00'1122.0
2017-Nov-18 13:00N 50°11' W 001°43'1121.4
2017-Nov-18 12:30N 50°14' W 001°27'1020.7
2017-Nov-18 12:00N 50°16' W 001°11'1019.8
2017-Nov-18 11:30N 50°18' W 000°56'2718.1
2017-Nov-18 10:02N 50°25' W 000°16'117.5
2017-Nov-18 10:00N 50°25' W 000°15'817.3
2017-Nov-18 09:30N 50°28' W 000°02'816.9
2017-Nov-18 09:00N 50°30' E 000°11'816.7
2017-Nov-18 08:30N 50°33' E 000°23'817.0
2017-Nov-18 08:00N 50°37' E 000°35'917.4
2017-Nov-18 07:30N 50°41' E 000°47'918.9
2017-Nov-18 07:00N 50°46' E 000°59'1020.0
2017-Nov-18 06:30N 50°52' E 001°12'1120.8
2017-Nov-18 06:00N 50°59' E 001°24'1021.2
2017-Nov-18 05:31N 51°07' E 001°36'1020.2
2017-Nov-18 05:00N 51°15' E 001°46'1019.2
2017-Nov-18 04:30N 51°23' E 001°53'918.0
2017-Nov-18 04:00N 51°30' E 002°02'917.8
2017-Nov-18 03:30N 51°36' E 002°12'917.5
2017-Nov-18 03:00N 51°43' E 002°21'1017.0
2017-Nov-18 02:25N 51°50' E 002°32'817.0
2017-Nov-18 01:58N 51°56' E 002°41'2216.0
2017-Nov-18 00:36N 52°02' E 003°15'317.2
2017-Nov-18 00:27N 52°03' E 003°19'817.4
2017-Nov-18 00:00N 52°03' E 003°31'917.8
2017-Nov-17 23:30N 52°02' E 003°46'510.9
2017-Nov-17 23:00N 52°02' E 003°55'4 8.4
2017-Nov-17 22:30N 52°00' E 004°00'4 7.4
2017-Nov-17 22:00N 51°58' E 004°05'1 1.8
2017-Nov-17 21:30N 51°58' E 004°04'0 0.0
2017-Nov-17 20:59N 51°58' E 004°04'0 0.0
2017-Nov-17 20:29N 51°58' E 004°04'0 0.0
2017-Nov-17 19:59N 51°58' E 004°04'0 0.0
2017-Nov-17 19:29N 51°58' E 004°04'0 0.0
2017-Nov-17 18:59N 51°58' E 004°04'0 0.0
2017-Nov-17 18:29N 51°58' E 004°04'0 0.0
2017-Nov-17 17:59N 51°58' E 004°04'0 0.0
2017-Nov-17 17:29N 51°58' E 004°04'0 0.0
2017-Nov-17 16:59N 51°58' E 004°04'0 0.0
2017-Nov-17 16:29N 51°58' E 004°04'0 0.0
2017-Nov-17 15:59N 51°58' E 004°04'0 0.0
2017-Nov-17 15:29N 51°58' E 004°04'0 0.0
2017-Nov-17 14:59N 51°58' E 004°04'0 0.0
2017-Nov-17 14:29N 51°58' E 004°04'0 0.0
2017-Nov-17 13:59N 51°58' E 004°04'0 0.0
2017-Nov-17 13:29N 51°58' E 004°04'0 0.0
2017-Nov-17 12:59N 51°58' E 004°04'0 0.0
2017-Nov-17 12:29N 51°58' E 004°04'0 0.0
2017-Nov-17 11:59N 51°58' E 004°04'0 0.0
2017-Nov-17 11:29N 51°58' E 004°04'0 0.0
2017-Nov-17 10:59N 51°58' E 004°04'0 0.0
2017-Nov-17 10:29N 51°58' E 004°04'0 0.0
2017-Nov-17 09:59N 51°58' E 004°04'0 0.0
2017-Nov-17 09:29N 51°58' E 004°04'0 0.0
2017-Nov-17 08:59N 51°58' E 004°04'0 0.0
2017-Nov-17 08:29N 51°58' E 004°04'0 0.0
2017-Nov-17 07:59N 51°58' E 004°04'0 0.0
2017-Nov-17 07:29N 51°58' E 004°04'0 0.0
2017-Nov-17 06:59N 51°58' E 004°04'0 0.0
2017-Nov-17 06:29N 51°58' E 004°04'0 0.0
2017-Nov-17 05:59N 51°58' E 004°04'0 0.0
2017-Nov-17 05:29N 51°58' E 004°04'0 0.0
2017-Nov-17 04:59N 51°58' E 004°04'0 0.0
2017-Nov-17 04:29N 51°58' E 004°04'0 0.0
2017-Nov-17 03:59N 51°58' E 004°04'0 0.0
2017-Nov-17 03:29N 51°58' E 004°04'0 0.0
2017-Nov-17 02:59N 51°58' E 004°04'0 0.0
2017-Nov-17 02:29N 51°58' E 004°04'0 0.0
2017-Nov-17 01:59N 51°58' E 004°04'0 0.0
2017-Nov-17 01:26N 51°58' E 004°04'0 0.0
2017-Nov-17 00:59N 51°58' E 004°04'0 0.0
2017-Nov-17 00:29N 51°58' E 004°04'0 0.0
2017-Nov-16 23:59N 51°58' E 004°04'0 0.0
2017-Nov-16 23:29N 51°58' E 004°04'0 0.0
2017-Nov-16 22:59N 51°58' E 004°04'0 0.0
2017-Nov-16 22:29N 51°58' E 004°04'0 0.0
2017-Nov-16 21:59N 51°58' E 004°04'0 0.0
2017-Nov-16 21:29N 51°58' E 004°04'0 0.0
2017-Nov-16 20:59N 51°58' E 004°04'0 0.0
2017-Nov-16 20:29N 51°58' E 004°04'0 0.0
2017-Nov-16 19:59N 51°58' E 004°04'0 0.1
2017-Nov-16 19:31N 51°58' E 004°04'1 2.7
2017-Nov-16 19:01N 51°59' E 004°05'3 6.4
2017-Nov-16 18:31N 52°00' E 003°60'4 7.0
2017-Nov-16 18:00N 52°01' E 003°54'4 8.3
2017-Nov-16 17:31N 51°60' E 003°48'3 6.7
2017-Nov-16 17:00N 51°59' E 003°42'3 7.0
2017-Nov-16 16:31N 51°58' E 003°37'4 7.4
2017-Nov-16 16:00N 51°57' E 003°31'4 7.6
2017-Nov-16 15:29N 51°56' E 003°25'611.4
2017-Nov-16 14:58N 51°51' E 003°21'613.1
2017-Nov-16 14:29N 51°45' E 003°16'815.5
2017-Nov-16 13:59N 51°38' E 003°11'917.8
2017-Nov-16 13:30N 51°30' E 003°05'611.8
2017-Nov-16 13:01N 51°25' E 003°03'714.8
2017-Nov-16 12:31N 51°25' E 003°15'714.8
2017-Nov-16 12:01N 51°25' E 003°27'611.0
2017-Nov-16 11:30N 51°26' E 003°35'5 9.3
2017-Nov-16 11:01N 51°25' E 003°42'611.8
2017-Nov-16 10:30N 51°21' E 003°49'612.0
2017-Nov-16 10:00N 51°24' E 003°57'3 6.4
2017-Nov-16 09:30N 51°23' E 004°02'510.5
2017-Nov-16 09:00N 51°24' E 004°11'5 9.5
2017-Nov-16 08:30N 51°20' E 004°16'3 5.7
2017-Nov-16 08:00N 51°18' E 004°16'0 0.1
2017-Nov-16 07:30N 51°18' E 004°16'0 0.0
2017-Nov-16 07:00N 51°18' E 004°16'0 0.0
2017-Nov-16 06:30N 51°18' E 004°16'0 0.0
2017-Nov-16 06:00N 51°18' E 004°16'0 0.0
2017-Nov-16 05:30N 51°18' E 004°16'0 0.0
2017-Nov-16 05:00N 51°18' E 004°16'0 0.0
2017-Nov-16 04:30N 51°18' E 004°16'0 0.0
2017-Nov-16 03:57N 51°18' E 004°16'0 0.0
2017-Nov-16 03:30N 51°18' E 004°16'0 0.0
2017-Nov-16 03:00N 51°18' E 004°16'0 0.0
2017-Nov-16 02:30N 51°18' E 004°16'0 0.0
2017-Nov-16 02:00N 51°18' E 004°16'0 0.0
2017-Nov-16 01:30N 51°18' E 004°16'0 0.0
2017-Nov-16 01:00N 51°18' E 004°16'0 0.0
2017-Nov-16 00:30N 51°18' E 004°16'0 0.0
2017-Nov-16 00:00N 51°18' E 004°16'0 0.0
2017-Nov-15 23:30N 51°18' E 004°16'0 0.0
2017-Nov-15 22:51N 51°18' E 004°16'0 0.0
2017-Nov-15 22:30N 51°18' E 004°16'0 0.0
2017-Nov-15 22:00N 51°18' E 004°16'0 0.0
2017-Nov-15 21:30N 51°18' E 004°16'0 0.0
2017-Nov-15 21:00N 51°18' E 004°16'0 0.0
2017-Nov-15 20:30N 51°18' E 004°16'0 0.0
2017-Nov-15 20:00N 51°18' E 004°16'0 0.0
2017-Nov-15 19:30N 51°18' E 004°16'0 0.0
2017-Nov-15 19:00N 51°18' E 004°16'0 0.0
2017-Nov-15 18:30N 51°18' E 004°16'0 0.0
2017-Nov-15 18:00N 51°18' E 004°16'0 0.0
2017-Nov-15 17:30N 51°18' E 004°16'0 0.0
2017-Nov-15 17:00N 51°18' E 004°16'0 0.0
2017-Nov-15 16:30N 51°18' E 004°16'0 0.0
2017-Nov-15 16:00N 51°18' E 004°16'0 0.0
2017-Nov-15 15:27N 51°18' E 004°16'0 0.0
2017-Nov-15 15:00N 51°18' E 004°16'0 0.0
2017-Nov-15 14:30N 51°18' E 004°16'0 0.0
2017-Nov-15 14:00N 51°18' E 004°16'0 0.0
2017-Nov-15 13:30N 51°18' E 004°16'0 0.0
2017-Nov-15 13:00N 51°18' E 004°16'0 0.0
2017-Nov-15 12:30N 51°18' E 004°16'0 0.0
2017-Nov-15 11:57N 51°18' E 004°16'0 0.0
2017-Nov-15 11:30N 51°18' E 004°16'0 0.0
2017-Nov-15 11:00N 51°18' E 004°16'0 0.0
2017-Nov-15 10:30N 51°18' E 004°16'0 0.0
2017-Nov-15 10:00N 51°18' E 004°16'0 0.0
2017-Nov-15 09:30N 51°18' E 004°16'0 0.0
2017-Nov-15 09:00N 51°18' E 004°16'0 0.0
2017-Nov-15 08:30N 51°18' E 004°16'0 0.0
2017-Nov-15 08:00N 51°18' E 004°16'0 0.0
2017-Nov-15 07:30N 51°18' E 004°16'0 0.0
2017-Nov-15 07:00N 51°18' E 004°16'0 0.0
2017-Nov-15 06:30N 51°18' E 004°16'0 0.0
2017-Nov-15 06:00N 51°18' E 004°16'0 0.0
2017-Nov-15 05:30N 51°18' E 004°16'0 0.0
2017-Nov-15 05:00N 51°18' E 004°16'0 0.0
2017-Nov-15 04:30N 51°18' E 004°16'0 0.0
2017-Nov-15 04:00N 51°18' E 004°16'0 0.0
2017-Nov-15 03:30N 51°18' E 004°16'0 0.0
2017-Nov-15 03:00N 51°18' E 004°16'0 0.0
2017-Nov-15 02:30N 51°18' E 004°16'0 0.0
2017-Nov-15 02:00N 51°18' E 004°16'0 0.0
2017-Nov-15 01:30N 51°18' E 004°16'0 0.0
2017-Nov-15 01:00N 51°18' E 004°16'0 0.0
2017-Nov-15 00:30N 51°18' E 004°16'0 0.0
2017-Nov-15 00:00N 51°18' E 004°16'0 0.0
2017-Nov-14 23:30N 51°18' E 004°16'0 0.0
2017-Nov-14 23:00N 51°18' E 004°16'0 0.0
2017-Nov-14 22:30N 51°18' E 004°16'0 0.0
2017-Nov-14 22:00N 51°18' E 004°16'0 0.0
2017-Nov-14 21:30N 51°18' E 004°16'0 0.0
2017-Nov-14 21:00N 51°18' E 004°16'0 0.0
2017-Nov-14 20:30N 51°18' E 004°16'0 0.0
2017-Nov-14 20:00N 51°18' E 004°16'0 0.0
2017-Nov-14 19:30N 51°18' E 004°16'0 0.0
2017-Nov-14 19:00N 51°18' E 004°16'0 0.0
2017-Nov-14 18:30N 51°18' E 004°16'0 0.0
2017-Nov-14 18:00N 51°18' E 004°16'0 0.0
2017-Nov-14 17:30N 51°18' E 004°16'0 0.0
2017-Nov-14 17:00N 51°18' E 004°16'0 0.0
2017-Nov-14 16:30N 51°18' E 004°16'0 0.0
2017-Nov-14 16:00N 51°18' E 004°16'0 0.0
2017-Nov-14 15:30N 51°18' E 004°16'0 0.0
2017-Nov-14 15:00N 51°18' E 004°16'0 0.0
2017-Nov-14 14:30N 51°18' E 004°16'0 0.0
2017-Nov-14 14:00N 51°18' E 004°16'0 0.0
2017-Nov-14 13:30N 51°18' E 004°16'0 0.0
2017-Nov-14 13:00N 51°18' E 004°16'0 0.0
2017-Nov-14 12:30N 51°18' E 004°16'0 0.0
2017-Nov-14 12:00N 51°18' E 004°16'0 0.0
2017-Nov-14 11:30N 51°18' E 004°16'0 0.0
2017-Nov-14 11:00N 51°18' E 004°16'0 0.0
2017-Nov-14 10:28N 51°18' E 004°16'0 0.0
2017-Nov-14 09:58N 51°18' E 004°16'0 0.0
2017-Nov-14 09:28N 51°18' E 004°16'0 0.0
2017-Nov-14 08:58N 51°18' E 004°16'0 0.0
2017-Nov-14 08:28N 51°18' E 004°16'0 0.0
2017-Nov-14 07:58N 51°18' E 004°16'0 0.0
2017-Nov-14 07:28N 51°18' E 004°16'0 0.0
2017-Nov-14 06:59N 51°18' E 004°16'0 0.8
2017-Nov-14 06:30N 51°18' E 004°16'1 1.6
2017-Nov-14 06:00N 51°19' E 004°16'3 6.2
2017-Nov-14 05:30N 51°21' E 004°14'4 8.2
2017-Nov-14 05:00N 51°22' E 004°07'510.3
2017-Nov-14 04:30N 51°26' E 004°01'612.0
2017-Nov-14 04:00N 51°22' E 003°54'612.1
2017-Nov-14 03:31N 51°22' E 003°45'611.2
2017-Nov-14 03:01N 51°26' E 003°38'4 7.4
2017-Nov-14 02:30N 51°25' E 003°33'714.8
2017-Nov-14 02:00N 51°24' E 003°21'816.4
2017-Nov-14 01:30N 51°24' E 003°08'611.7
2017-Nov-14 01:01N 51°27' E 003°00'917.8
2017-Nov-14 00:30N 51°34' E 003°09'714.7
2017-Nov-14 00:01N 51°41' E 003°14'611.2
2017-Nov-13 23:30N 51°47' E 003°15'1117.1
2017-Nov-13 22:50N 51°58' E 003°19'718.0
2017-Nov-13 22:28N 52°04' E 003°20'817.9
2017-Nov-13 21:59N 52°13' E 003°23'24912.5
2017-Nov-13 02:00N 53°32' E 009°54'0 0.0
2017-Nov-13 01:31N 53°32' E 009°54'0 0.0
2017-Nov-13 01:00N 53°32' E 009°54'0 0.0
2017-Nov-13 00:31N 53°32' E 009°54'0 0.0
2017-Nov-13 00:00N 53°32' E 009°54'0 0.0
2017-Nov-12 23:31N 53°32' E 009°54'0 0.0
2017-Nov-12 23:01N 53°32' E 009°54'0 0.0
2017-Nov-12 22:30N 53°32' E 009°54'0 0.0
2017-Nov-12 22:00N 53°32' E 009°54'0 0.0
2017-Nov-12 21:30N 53°32' E 009°54'0 0.0
2017-Nov-12 21:01N 53°32' E 009°54'0 0.0
2017-Nov-12 20:31N 53°32' E 009°54'0 0.0
2017-Nov-12 20:00N 53°32' E 009°54'0 0.0
2017-Nov-12 19:30N 53°32' E 009°54'0 0.0
2017-Nov-12 19:00N 53°32' E 009°54'0 0.0
2017-Nov-12 18:31N 53°32' E 009°54'0 0.0
2017-Nov-12 18:01N 53°32' E 009°54'0 0.0
2017-Nov-12 17:30N 53°32' E 009°54'0 0.0
2017-Nov-12 17:00N 53°32' E 009°54'0 0.0
2017-Nov-12 16:30N 53°32' E 009°54'0 0.0
2017-Nov-12 16:01N 53°32' E 009°54'0 0.0
2017-Nov-12 15:30N 53°32' E 009°54'0 0.0
2017-Nov-12 15:00N 53°32' E 009°54'0 0.0
2017-Nov-12 14:31N 53°32' E 009°54'0 0.0
2017-Nov-12 14:01N 53°32' E 009°54'0 0.0
2017-Nov-12 13:31N 53°32' E 009°54'0 0.0
2017-Nov-12 13:00N 53°32' E 009°54'0 0.0
2017-Nov-12 12:31N 53°32' E 009°54'0 0.0
2017-Nov-12 12:00N 53°32' E 009°54'0 0.0
2017-Nov-12 11:31N 53°32' E 009°54'0 0.0
2017-Nov-12 11:01N 53°32' E 009°54'0 0.0
2017-Nov-12 10:30N 53°32' E 009°54'0 0.0
2017-Nov-12 10:00N 53°32' E 009°54'0 0.0
2017-Nov-12 09:30N 53°32' E 009°54'0 0.0
2017-Nov-12 09:01N 53°32' E 009°54'0 0.0
2017-Nov-12 08:30N 53°32' E 009°54'0 0.0
2017-Nov-12 08:01N 53°32' E 009°54'0 0.0
2017-Nov-12 07:31N 53°32' E 009°54'0 0.0
2017-Nov-12 07:01N 53°32' E 009°54'0 0.0
2017-Nov-12 06:31N 53°32' E 009°54'0 0.0
2017-Nov-12 06:00N 53°32' E 009°54'0 0.0
2017-Nov-12 05:31N 53°32' E 009°54'0 0.0
2017-Nov-12 05:01N 53°32' E 009°54'0 0.0
2017-Nov-12 04:30N 53°32' E 009°54'0 0.0
2017-Nov-12 04:00N 53°32' E 009°54'0 0.0
2017-Nov-12 03:30N 53°32' E 009°54'0 0.0
2017-Nov-12 03:00N 53°32' E 009°54'0 0.0
2017-Nov-12 02:31N 53°32' E 009°54'0 0.0
2017-Nov-12 02:00N 53°32' E 009°54'0 0.0
2017-Nov-12 01:30N 53°32' E 009°54'0 0.0
2017-Nov-12 01:00N 53°32' E 009°54'0 0.0
2017-Nov-12 00:30N 53°32' E 009°54'0 0.0
2017-Nov-12 00:00N 53°32' E 009°54'0 0.0
2017-Nov-11 23:30N 53°32' E 009°54'0 0.0
2017-Nov-11 23:00N 53°32' E 009°54'0 0.0
2017-Nov-11 22:31N 53°32' E 009°54'0 0.5
2017-Nov-11 22:00N 53°32' E 009°54'3 5.8
2017-Nov-11 21:31N 53°33' E 009°49'510.8
2017-Nov-11 21:01N 53°34' E 009°41'713.5
2017-Nov-11 20:30N 53°38' E 009°32'612.8
2017-Nov-11 20:01N 53°44' E 009°27'815.4
2017-Nov-11 19:31N 53°50' E 009°20'714.4
2017-Nov-11 19:00N 53°53' E 009°08'713.6
2017-Nov-11 18:30N 53°51' E 008°57'815.7
2017-Nov-11 18:00N 53°52' E 008°44'917.2
2017-Nov-11 17:30N 53°58' E 008°34'1019.5
2017-Nov-11 17:00N 53°60' E 008°17'918.9
2017-Nov-11 16:30N 53°60' E 008°01'511.1
2017-Nov-11 16:00N 54°00' E 007°52'3 6.2
2017-Nov-11 15:30N 53°58' E 007°48'510.4
2017-Nov-11 14:59N 53°58' E 007°39'5 0.4
2017-Nov-11 02:45N 53°57' E 007°32'2 5.8
2017-Nov-11 02:27N 53°55' E 007°30'819.1
2017-Nov-11 02:00N 53°53' E 007°16'8821.6
2017-Nov-10 21:55N 53°28' E 004°54'1819.7
2017-Nov-10 20:59N 53°14' E 004°33'920.3
2017-Nov-10 20:31N 53°06' E 004°26'1019.7
2017-Nov-10 20:00N 52°57' E 004°18'1019.3
2017-Nov-10 19:30N 52°48' E 004°12'1020.5
2017-Nov-10 19:00N 52°40' E 004°01'1020.7
2017-Nov-10 18:30N 52°33' E 003°49'1121.1
2017-Nov-10 17:59N 52°25' E 003°36'1021.2
2017-Nov-10 17:30N 52°18' E 003°24'3520.7
2017-Nov-10 15:48N 51°54' E 002°43'2121.0
2017-Nov-10 14:47N 51°52' E 002°08'620.3
2017-Nov-10 14:30N 51°50' E 001°60'918.9
2017-Nov-10 14:00N 51°49' E 001°44'612.5
2017-Nov-10 13:30N 51°52' E 001°35'611.7
2017-Nov-10 13:01N 51°56' E 001°29'612.9
2017-Nov-10 12:30N 51°56' E 001°19'2 3.9
2017-Nov-10 12:00N 51°58' E 001°18'0 0.0
2017-Nov-10 11:30N 51°58' E 001°18'0 0.0
2017-Nov-10 11:00N 51°58' E 001°18'0 0.0
2017-Nov-10 10:30N 51°58' E 001°18'0 0.0
2017-Nov-10 10:00N 51°58' E 001°18'0 0.0
2017-Nov-10 09:30N 51°58' E 001°18'0 0.0
2017-Nov-10 09:00N 51°58' E 001°18'0 0.0
2017-Nov-10 08:30N 51°58' E 001°18'0 0.0
2017-Nov-10 08:00N 51°58' E 001°18'0 0.0
2017-Nov-10 07:30N 51°58' E 001°18'0 0.0
2017-Nov-10 07:00N 51°58' E 001°18'0 0.0
2017-Nov-10 06:29N 51°58' E 001°18'0 0.0
2017-Nov-10 05:59N 51°58' E 001°18'0 0.0
2017-Nov-10 05:29N 51°58' E 001°18'0 0.0
2017-Nov-10 04:59N 51°58' E 001°18'0 0.0
2017-Nov-10 04:29N 51°58' E 001°18'0 0.0
2017-Nov-10 03:59N 51°58' E 001°18'0 0.0
2017-Nov-10 03:29N 51°58' E 001°18'0 0.0
2017-Nov-10 02:59N 51°58' E 001°18'0 0.0
2017-Nov-10 02:29N 51°58' E 001°18'0 0.0
2017-Nov-10 01:59N 51°58' E 001°18'0 0.0
2017-Nov-10 01:29N 51°58' E 001°18'0 0.0
2017-Nov-10 00:59N 51°58' E 001°18'0 0.0
2017-Nov-10 00:29N 51°58' E 001°18'0 0.0
2017-Nov-09 23:59N 51°58' E 001°18'0 0.0
2017-Nov-09 23:29N 51°58' E 001°18'0 0.0
2017-Nov-09 22:59N 51°58' E 001°18'0 0.0
2017-Nov-09 22:29N 51°58' E 001°18'0 0.0
2017-Nov-09 21:59N 51°58' E 001°18'0 0.0
2017-Nov-09 21:29N 51°58' E 001°18'0 0.0
2017-Nov-09 20:59N 51°58' E 001°18'0 0.0
2017-Nov-09 20:29N 51°58' E 001°18'0 0.0
2017-Nov-09 19:59N 51°58' E 001°18'  
Track history (hours):
 
Tides and Currents Weather Stations Pressure Air Temp Water Temp Dewpoint Dewpoint Depression Visibility Wind Speed Wind Dir Waves Ship Positions

MSC Maria Saveria

Last reported at 2017-Nov-19 19:55 UTC. Time now 2017-Nov-22 03:40 UTC.
Position N 42°38' W 010°08'.

Length 366 m; draft 15.2 m.

Type: Ship (hazmat cat A). MMSI: 372400000.

Date/timePositionNaut miles runAvg speedWind from/ knotsBaromVisibWave heightAir tempDewpointWater temp
2017-Nov-19 19:55N 42°38' W 010°08'920.2
2017-Nov-19 19:29N 42°46' W 010°07'26519.5
2017-Nov-19 05:52N 46°47' W 007°29'1022.1
2017-Nov-19 05:24N 46°56' W 007°22'615.8
2017-Nov-19 05:00N 47°01' W 007°17'919.1
2017-Nov-19 04:30N 47°09' W 007°11'1119.6
2017-Nov-19 03:56N 47°19' W 007°03'818.8
2017-Nov-19 03:29N 47°27' W 006°57'918.4
2017-Nov-19 03:00N 47°34' W 006°50'918.0
2017-Nov-19 02:29N 47°43' W 006°44'917.9
2017-Nov-19 02:00N 47°50' W 006°38'917.9
2017-Nov-19 01:30N 47°58' W 006°32'918.1
2017-Nov-19 00:59N 48°07' W 006°26'918.4
2017-Nov-19 00:30N 48°15' W 006°19'1018.9
2017-Nov-18 23:59N 48°23' W 006°12'919.4
2017-Nov-18 23:30N 48°32' W 006°06'1019.9
2017-Nov-18 23:00N 48°40' W 005°59'1020.0
2017-Nov-18 22:30N 48°49' W 005°52'1019.9
2017-Nov-18 22:00N 48°56' W 005°42'1220.3
2017-Nov-18 21:24N 49°03' W 005°26'1420.1
2017-Nov-18 20:42N 49°10' W 005°08'520.0
2017-Nov-18 20:26N 49°13' W 005°01'919.6
2017-Nov-18 20:00N 49°18' W 004°50'1019.0
2017-Nov-18 19:27N 49°23' W 004°36'1118.5
2017-Nov-18 18:53N 49°29' W 004°22'817.8
2017-Nov-18 18:27N 49°32' W 004°12'817.5
2017-Nov-18 17:58N 49°36' W 004°00'1121.7
2017-Nov-18 17:26N 49°43' W 003°46'511.7
2017-Nov-18 17:00N 49°45' W 003°39'917.4
2017-Nov-18 16:30N 49°49' W 003°27'917.8
2017-Nov-18 16:00N 49°54' W 003°15'918.5
2017-Nov-18 15:30N 49°58' W 003°03'1019.4
2017-Nov-18 15:00N 50°01' W 002°48'1120.4
2017-Nov-18 14:29N 50°04' W 002°32'1121.4
2017-Nov-18 13:59N 50°07' W 002°16'1021.8
2017-Nov-18 13:30N 50°09' W 002°00'1122.0
2017-Nov-18 13:00N 50°11' W 001°43'1121.4
2017-Nov-18 12:30N 50°14' W 001°27'1020.7
2017-Nov-18 12:00N 50°16' W 001°11'1019.8
2017-Nov-18 11:30N 50°18' W 000°56'2718.1
2017-Nov-18 10:02N 50°25' W 000°16'117.5
2017-Nov-18 10:00N 50°25' W 000°15'817.3
2017-Nov-18 09:30N 50°28' W 000°02'816.9
2017-Nov-18 09:00N 50°30' E 000°11'816.7
2017-Nov-18 08:30N 50°33' E 000°23'817.0
2017-Nov-18 08:00N 50°37' E 000°35'917.4
2017-Nov-18 07:30N 50°41' E 000°47'918.9
2017-Nov-18 07:00N 50°46' E 000°59'1020.0
2017-Nov-18 06:30N 50°52' E 001°12'1120.8
2017-Nov-18 06:00N 50°59' E 001°24'1021.2
2017-Nov-18 05:31N 51°07' E 001°36'1020.2
2017-Nov-18 05:00N 51°15' E 001°46'1019.2
2017-Nov-18 04:30N 51°23' E 001°53'918.0
2017-Nov-18 04:00N 51°30' E 002°02'917.8
2017-Nov-18 03:30N 51°36' E 002°12'917.5
2017-Nov-18 03:00N 51°43' E 002°21'1017.0
2017-Nov-18 02:25N 51°50' E 002°32'817.0
2017-Nov-18 01:58N 51°56' E 002°41'2216.0
2017-Nov-18 00:36N 52°02' E 003°15'317.2
2017-Nov-18 00:27N 52°03' E 003°19'817.4
2017-Nov-18 00:00N 52°03' E 003°31'917.8
2017-Nov-17 23:30N 52°02' E 003°46'510.9
2017-Nov-17 23:00N 52°02' E 003°55'4 8.4
2017-Nov-17 22:30N 52°00' E 004°00'4 7.4
2017-Nov-17 22:00N 51°58' E 004°05'1 1.8
2017-Nov-17 21:30N 51°58' E 004°04'0 0.0
2017-Nov-17 20:59N 51°58' E 004°04'0 0.0
2017-Nov-17 20:29N 51°58' E 004°04'0 0.0
2017-Nov-17 19:59N 51°58' E 004°04'0 0.0
2017-Nov-17 19:29N 51°58' E 004°04'0 0.0
2017-Nov-17 18:59N 51°58' E 004°04'0 0.0
2017-Nov-17 18:29N 51°58' E 004°04'0 0.0
2017-Nov-17 17:59N 51°58' E 004°04'0 0.0
2017-Nov-17 17:29N 51°58' E 004°04'0 0.0
2017-Nov-17 16:59N 51°58' E 004°04'0 0.0
2017-Nov-17 16:29N 51°58' E 004°04'0 0.0
2017-Nov-17 15:59N 51°58' E 004°04'0 0.0
2017-Nov-17 15:29N 51°58' E 004°04'0 0.0
2017-Nov-17 14:59N 51°58' E 004°04'0 0.0
2017-Nov-17 14:29N 51°58' E 004°04'0 0.0
2017-Nov-17 13:59N 51°58' E 004°04'0 0.0
2017-Nov-17 13:29N 51°58' E 004°04'0 0.0
2017-Nov-17 12:59N 51°58' E 004°04'0 0.0
2017-Nov-17 12:29N 51°58' E 004°04'0 0.0
2017-Nov-17 11:59N 51°58' E 004°04'0 0.0
2017-Nov-17 11:29N 51°58' E 004°04'0 0.0
2017-Nov-17 10:59N 51°58' E 004°04'0 0.0
2017-Nov-17 10:29N 51°58' E 004°04'0 0.0
2017-Nov-17 09:59N 51°58' E 004°04'0 0.0
2017-Nov-17 09:29N 51°58' E 004°04'0 0.0
2017-Nov-17 08:59N 51°58' E 004°04'0 0.0
2017-Nov-17 08:29N 51°58' E 004°04'0 0.0
2017-Nov-17 07:59N 51°58' E 004°04'0 0.0
2017-Nov-17 07:29N 51°58' E 004°04'0 0.0
2017-Nov-17 06:59N 51°58' E 004°04'0 0.0
2017-Nov-17 06:29N 51°58' E 004°04'0 0.0
2017-Nov-17 05:59N 51°58' E 004°04'0 0.0
2017-Nov-17 05:29N 51°58' E 004°04'0 0.0
2017-Nov-17 04:59N 51°58' E 004°04'0 0.0
2017-Nov-17 04:29N 51°58' E 004°04'0 0.0
2017-Nov-17 03:59N 51°58' E 004°04'0 0.0
2017-Nov-17 03:29N 51°58' E 004°04'0 0.0
2017-Nov-17 02:59N 51°58' E 004°04'0 0.0
2017-Nov-17 02:29N 51°58' E 004°04'0 0.0
2017-Nov-17 01:59N 51°58' E 004°04'0 0.0
2017-Nov-17 01:26N 51°58' E 004°04'0 0.0
2017-Nov-17 00:59N 51°58' E 004°04'0 0.0
2017-Nov-17 00:29N 51°58' E 004°04'0 0.0
2017-Nov-16 23:59N 51°58' E 004°04'0 0.0
2017-Nov-16 23:29N 51°58' E 004°04'0 0.0
2017-Nov-16 22:59N 51°58' E 004°04'0 0.0
2017-Nov-16 22:29N 51°58' E 004°04'0 0.0
2017-Nov-16 21:59N 51°58' E 004°04'0 0.0
2017-Nov-16 21:29N 51°58' E 004°04'0 0.0
2017-Nov-16 20:59N 51°58' E 004°04'0 0.0
2017-Nov-16 20:29N 51°58' E 004°04'0 0.0
2017-Nov-16 19:59N 51°58' E 004°04'0 0.1
2017-Nov-16 19:31N 51°58' E 004°04'1 2.7
2017-Nov-16 19:01N 51°59' E 004°05'3 6.4
2017-Nov-16 18:31N 52°00' E 003°60'4 7.0
2017-Nov-16 18:00N 52°01' E 003°54'4 8.3
2017-Nov-16 17:31N 51°60' E 003°48'3 6.7
2017-Nov-16 17:00N 51°59' E 003°42'3 7.0
2017-Nov-16 16:31N 51°58' E 003°37'4 7.4
2017-Nov-16 16:00N 51°57' E 003°31'4 7.6
2017-Nov-16 15:29N 51°56' E 003°25'611.4
2017-Nov-16 14:58N 51°51' E 003°21'613.1
2017-Nov-16 14:29N 51°45' E 003°16'815.5
2017-Nov-16 13:59N 51°38' E 003°11'917.8
2017-Nov-16 13:30N 51°30' E 003°05'611.8
2017-Nov-16 13:01N 51°25' E 003°03'714.8
2017-Nov-16 12:31N 51°25' E 003°15'714.8
2017-Nov-16 12:01N 51°25' E 003°27'611.0
2017-Nov-16 11:30N 51°26' E 003°35'5 9.3
2017-Nov-16 11:01N 51°25' E 003°42'611.8
2017-Nov-16 10:30N 51°21' E 003°49'612.0
2017-Nov-16 10:00N 51°24' E 003°57'3 6.4
2017-Nov-16 09:30N 51°23' E 004°02'510.5
2017-Nov-16 09:00N 51°24' E 004°11'5 9.5
2017-Nov-16 08:30N 51°20' E 004°16'3 5.7
2017-Nov-16 08:00N 51°18' E 004°16'0 0.1
2017-Nov-16 07:30N 51°18' E 004°16'0 0.0
2017-Nov-16 07:00N 51°18' E 004°16'0 0.0
2017-Nov-16 06:30N 51°18' E 004°16'0 0.0
2017-Nov-16 06:00N 51°18' E 004°16'0 0.0
2017-Nov-16 05:30N 51°18' E 004°16'0 0.0
2017-Nov-16 05:00N 51°18' E 004°16'0 0.0
2017-Nov-16 04:30N 51°18' E 004°16'0 0.0
2017-Nov-16 03:57N 51°18' E 004°16'0 0.0
2017-Nov-16 03:30N 51°18' E 004°16'0 0.0
2017-Nov-16 03:00N 51°18' E 004°16'0 0.0
2017-Nov-16 02:30N 51°18' E 004°16'0 0.0
2017-Nov-16 02:00N 51°18' E 004°16'0 0.0
2017-Nov-16 01:30N 51°18' E 004°16'0 0.0
2017-Nov-16 01:00N 51°18' E 004°16'0 0.0
2017-Nov-16 00:30N 51°18' E 004°16'0 0.0
2017-Nov-16 00:00N 51°18' E 004°16'0 0.0
2017-Nov-15 23:30N 51°18' E 004°16'0 0.0
2017-Nov-15 22:51N 51°18' E 004°16'0 0.0
2017-Nov-15 22:30N 51°18' E 004°16'0 0.0
2017-Nov-15 22:00N 51°18' E 004°16'0 0.0
2017-Nov-15 21:30N 51°18' E 004°16'0 0.0
2017-Nov-15 21:00N 51°18' E 004°16'0 0.0
2017-Nov-15 20:30N 51°18' E 004°16'0 0.0
2017-Nov-15 20:00N 51°18' E 004°16'0 0.0
2017-Nov-15 19:30N 51°18' E 004°16'0 0.0
2017-Nov-15 19:00N 51°18' E 004°16'0 0.0
2017-Nov-15 18:30N 51°18' E 004°16'0 0.0
2017-Nov-15 18:00N 51°18' E 004°16'0 0.0
2017-Nov-15 17:30N 51°18' E 004°16'0 0.0
2017-Nov-15 17:00N 51°18' E 004°16'0 0.0
2017-Nov-15 16:30N 51°18' E 004°16'0 0.0
2017-Nov-15 16:00N 51°18' E 004°16'0 0.0
2017-Nov-15 15:27N 51°18' E 004°16'0 0.0
2017-Nov-15 15:00N 51°18' E 004°16'0 0.0
2017-Nov-15 14:30N 51°18' E 004°16'0 0.0
2017-Nov-15 14:00N 51°18' E 004°16'0 0.0
2017-Nov-15 13:30N 51°18' E 004°16'0 0.0
2017-Nov-15 13:00N 51°18' E 004°16'0 0.0
2017-Nov-15 12:30N 51°18' E 004°16'0 0.0
2017-Nov-15 11:57N 51°18' E 004°16'0 0.0
2017-Nov-15 11:30N 51°18' E 004°16'0 0.0
2017-Nov-15 11:00N 51°18' E 004°16'0 0.0
2017-Nov-15 10:30N 51°18' E 004°16'0 0.0
2017-Nov-15 10:00N 51°18' E 004°16'0 0.0
2017-Nov-15 09:30N 51°18' E 004°16'0 0.0
2017-Nov-15 09:00N 51°18' E 004°16'0 0.0
2017-Nov-15 08:30N 51°18' E 004°16'0 0.0
2017-Nov-15 08:00N 51°18' E 004°16'0 0.0
2017-Nov-15 07:30N 51°18' E 004°16'0 0.0
2017-Nov-15 07:00N 51°18' E 004°16'0 0.0
2017-Nov-15 06:30N 51°18' E 004°16'0 0.0
2017-Nov-15 06:00N 51°18' E 004°16'0 0.0
2017-Nov-15 05:30N 51°18' E 004°16'0 0.0
2017-Nov-15 05:00N 51°18' E 004°16'0 0.0
2017-Nov-15 04:30N 51°18' E 004°16'0 0.0
2017-Nov-15 04:00N 51°18' E 004°16'0 0.0
2017-Nov-15 03:30N 51°18' E 004°16'0 0.0
2017-Nov-15 03:00N 51°18' E 004°16'0 0.0
2017-Nov-15 02:30N 51°18' E 004°16'0 0.0
2017-Nov-15 02:00N 51°18' E 004°16'0 0.0
2017-Nov-15 01:30N 51°18' E 004°16'0 0.0
2017-Nov-15 01:00N 51°18' E 004°16'0 0.0
2017-Nov-15 00:30N 51°18' E 004°16'0 0.0
2017-Nov-15 00:00N 51°18' E 004°16'0 0.0
2017-Nov-14 23:30N 51°18' E 004°16'0 0.0
2017-Nov-14 23:00N 51°18' E 004°16'0 0.0
2017-Nov-14 22:30N 51°18' E 004°16'0 0.0
2017-Nov-14 22:00N 51°18' E 004°16'0 0.0
2017-Nov-14 21:30N 51°18' E 004°16'0 0.0
2017-Nov-14 21:00N 51°18' E 004°16'0 0.0
2017-Nov-14 20:30N 51°18' E 004°16'0 0.0
2017-Nov-14 20:00N 51°18' E 004°16'0 0.0
2017-Nov-14 19:30N 51°18' E 004°16'0 0.0
2017-Nov-14 19:00N 51°18' E 004°16'0 0.0
2017-Nov-14 18:30N 51°18' E 004°16'0 0.0
2017-Nov-14 18:00N 51°18' E 004°16'0 0.0
2017-Nov-14 17:30N 51°18' E 004°16'0 0.0
2017-Nov-14 17:00N 51°18' E 004°16'0 0.0
2017-Nov-14 16:30N 51°18' E 004°16'0 0.0
2017-Nov-14 16:00N 51°18' E 004°16'0 0.0
2017-Nov-14 15:30N 51°18' E 004°16'0 0.0
2017-Nov-14 15:00N 51°18' E 004°16'0 0.0
2017-Nov-14 14:30N 51°18' E 004°16'0 0.0
2017-Nov-14 14:00N 51°18' E 004°16'0 0.0
2017-Nov-14 13:30N 51°18' E 004°16'0 0.0
2017-Nov-14 13:00N 51°18' E 004°16'0 0.0
2017-Nov-14 12:30N 51°18' E 004°16'0 0.0
2017-Nov-14 12:00N 51°18' E 004°16'0 0.0
2017-Nov-14 11:30N 51°18' E 004°16'0 0.0
2017-Nov-14 11:00N 51°18' E 004°16'0 0.0
2017-Nov-14 10:28N 51°18' E 004°16'0 0.0
2017-Nov-14 09:58N 51°18' E 004°16'0 0.0
2017-Nov-14 09:28N 51°18' E 004°16'0 0.0
2017-Nov-14 08:58N 51°18' E 004°16'0 0.0
2017-Nov-14 08:28N 51°18' E 004°16'0 0.0
2017-Nov-14 07:58N 51°18' E 004°16'0 0.0
2017-Nov-14 07:28N 51°18' E 004°16'0 0.0
2017-Nov-14 06:59N 51°18' E 004°16'0 0.8
2017-Nov-14 06:30N 51°18' E 004°16'1 1.6
2017-Nov-14 06:00N 51°19' E 004°16'3 6.2
2017-Nov-14 05:30N 51°21' E 004°14'4 8.2
2017-Nov-14 05:00N 51°22' E 004°07'510.3
2017-Nov-14 04:30N 51°26' E 004°01'612.0
2017-Nov-14 04:00N 51°22' E 003°54'612.1
2017-Nov-14 03:31N 51°22' E 003°45'611.2
2017-Nov-14 03:01N 51°26' E 003°38'4 7.4
2017-Nov-14 02:30N 51°25' E 003°33'714.8
2017-Nov-14 02:00N 51°24' E 003°21'816.4
2017-Nov-14 01:30N 51°24' E 003°08'611.7
2017-Nov-14 01:01N 51°27' E 003°00'917.8
2017-Nov-14 00:30N 51°34' E 003°09'714.7
2017-Nov-14 00:01N 51°41' E 003°14'611.2
2017-Nov-13 23:30N 51°47' E 003°15'1117.1
2017-Nov-13 22:50N 51°58' E 003°19'718.0
2017-Nov-13 22:28N 52°04' E 003°20'817.9
2017-Nov-13 21:59N 52°13' E 003°23'24912.5
2017-Nov-13 02:00N 53°32' E 009°54'0 0.0
2017-Nov-13 01:31N 53°32' E 009°54'0 0.0
2017-Nov-13 01:00N 53°32' E 009°54'0 0.0
2017-Nov-13 00:31N 53°32' E 009°54'0 0.0
2017-Nov-13 00:00N 53°32' E 009°54'0 0.0
2017-Nov-12 23:31N 53°32' E 009°54'0 0.0
2017-Nov-12 23:01N 53°32' E 009°54'0 0.0
2017-Nov-12 22:30N 53°32' E 009°54'0 0.0
2017-Nov-12 22:00N 53°32' E 009°54'0 0.0
2017-Nov-12 21:30N 53°32' E 009°54'0 0.0
2017-Nov-12 21:01N 53°32' E 009°54'0 0.0
2017-Nov-12 20:31N 53°32' E 009°54'0 0.0
2017-Nov-12 20:00N 53°32' E 009°54'0 0.0
2017-Nov-12 19:30N 53°32' E 009°54'0 0.0
2017-Nov-12 19:00N 53°32' E 009°54'0 0.0
2017-Nov-12 18:31N 53°32' E 009°54'0 0.0
2017-Nov-12 18:01N 53°32' E 009°54'0 0.0
2017-Nov-12 17:30N 53°32' E 009°54'0 0.0
2017-Nov-12 17:00N 53°32' E 009°54'0 0.0
2017-Nov-12 16:30N 53°32' E 009°54'0 0.0
2017-Nov-12 16:01N 53°32' E 009°54'0 0.0
2017-Nov-12 15:30N 53°32' E 009°54'0 0.0
2017-Nov-12 15:00N 53°32' E 009°54'0 0.0
2017-Nov-12 14:31N 53°32' E 009°54'0 0.0
2017-Nov-12 14:01N 53°32' E 009°54'0 0.0
2017-Nov-12 13:31N 53°32' E 009°54'0 0.0
2017-Nov-12 13:00N 53°32' E 009°54'0 0.0
2017-Nov-12 12:31N 53°32' E 009°54'0 0.0
2017-Nov-12 12:00N 53°32' E 009°54'0 0.0
2017-Nov-12 11:31N 53°32' E 009°54'0 0.0
2017-Nov-12 11:01N 53°32' E 009°54'0 0.0
2017-Nov-12 10:30N 53°32' E 009°54'0 0.0
2017-Nov-12 10:00N 53°32' E 009°54'0 0.0
2017-Nov-12 09:30N 53°32' E 009°54'0 0.0
2017-Nov-12 09:01N 53°32' E 009°54'0 0.0
2017-Nov-12 08:30N 53°32' E 009°54'0 0.0
2017-Nov-12 08:01N 53°32' E 009°54'0 0.0
2017-Nov-12 07:31N 53°32' E 009°54'0 0.0
2017-Nov-12 07:01N 53°32' E 009°54'0 0.0
2017-Nov-12 06:31N 53°32' E 009°54'0 0.0
2017-Nov-12 06:00N 53°32' E 009°54'0 0.0
2017-Nov-12 05:31N 53°32' E 009°54'0 0.0
2017-Nov-12 05:01N 53°32' E 009°54'0 0.0
2017-Nov-12 04:30N 53°32' E 009°54'0 0.0
2017-Nov-12 04:00N 53°32' E 009°54'0 0.0
2017-Nov-12 03:30N 53°32' E 009°54'0 0.0
2017-Nov-12 03:00N 53°32' E 009°54'0 0.0
2017-Nov-12 02:31N 53°32' E 009°54'0 0.0
2017-Nov-12 02:00N 53°32' E 009°54'0 0.0
2017-Nov-12 01:30N 53°32' E 009°54'0 0.0
2017-Nov-12 01:00N 53°32' E 009°54'0 0.0
2017-Nov-12 00:30N 53°32' E 009°54'0 0.0
2017-Nov-12 00:00N 53°32' E 009°54'0 0.0
2017-Nov-11 23:30N 53°32' E 009°54'0 0.0
2017-Nov-11 23:00N 53°32' E 009°54'0 0.0
2017-Nov-11 22:31N 53°32' E 009°54'0 0.5
2017-Nov-11 22:00N 53°32' E 009°54'3 5.8
2017-Nov-11 21:31N 53°33' E 009°49'510.8
2017-Nov-11 21:01N 53°34' E 009°41'713.5
2017-Nov-11 20:30N 53°38' E 009°32'612.8
2017-Nov-11 20:01N 53°44' E 009°27'815.4
2017-Nov-11 19:31N 53°50' E 009°20'714.4
2017-Nov-11 19:00N 53°53' E 009°08'713.6
2017-Nov-11 18:30N 53°51' E 008°57'815.7
2017-Nov-11 18:00N 53°52' E 008°44'917.2
2017-Nov-11 17:30N 53°58' E 008°34'1019.5
2017-Nov-11 17:00N 53°60' E 008°17'918.9
2017-Nov-11 16:30N 53°60' E 008°01'511.1
2017-Nov-11 16:00N 54°00' E 007°52'3 6.2
2017-Nov-11 15:30N 53°58' E 007°48'510.4
2017-Nov-11 14:59N 53°58' E 007°39'5 0.4
2017-Nov-11 02:45N 53°57' E 007°32'2 5.8
2017-Nov-11 02:27N 53°55' E 007°30'819.1
2017-Nov-11 02:00N 53°53' E 007°16'8821.6
2017-Nov-10 21:55N 53°28' E 004°54'1819.7
2017-Nov-10 20:59N 53°14' E 004°33'920.3
2017-Nov-10 20:31N 53°06' E 004°26'1019.7
2017-Nov-10 20:00N 52°57' E 004°18'1019.3
2017-Nov-10 19:30N 52°48' E 004°12'1020.5
2017-Nov-10 19:00N 52°40' E 004°01'1020.7
2017-Nov-10 18:30N 52°33' E 003°49'1121.1
2017-Nov-10 17:59N 52°25' E 003°36'1021.2
2017-Nov-10 17:30N 52°18' E 003°24'3520.7
2017-Nov-10 15:48N 51°54' E 002°43'2121.0
2017-Nov-10 14:47N 51°52' E 002°08'620.3
2017-Nov-10 14:30N 51°50' E 001°60'918.9
2017-Nov-10 14:00N 51°49' E 001°44'612.5
2017-Nov-10 13:30N 51°52' E 001°35'611.7
2017-Nov-10 13:01N 51°56' E 001°29'612.9
2017-Nov-10 12:30N 51°56' E 001°19'2 3.9
2017-Nov-10 12:00N 51°58' E 001°18'0 0.0
2017-Nov-10 11:30N 51°58' E 001°18'0 0.0
2017-Nov-10 11:00N 51°58' E 001°18'0 0.0
2017-Nov-10 10:30N 51°58' E 001°18'0 0.0
2017-Nov-10 10:00N 51°58' E 001°18'0 0.0
2017-Nov-10 09:30N 51°58' E 001°18'0 0.0
2017-Nov-10 09:00N 51°58' E 001°18'0 0.0
2017-Nov-10 08:30N 51°58' E 001°18'0 0.0
2017-Nov-10 08:00N 51°58' E 001°18'0 0.0
2017-Nov-10 07:30N 51°58' E 001°18'0 0.0
2017-Nov-10 07:00N 51°58' E 001°18'0 0.0
2017-Nov-10 06:29N 51°58' E 001°18'0 0.0
2017-Nov-10 05:59N 51°58' E 001°18'0 0.0
2017-Nov-10 05:29N 51°58' E 001°18'0 0.0
2017-Nov-10 04:59N 51°58' E 001°18'0 0.0
2017-Nov-10 04:29N 51°58' E 001°18'0 0.0
2017-Nov-10 03:59N 51°58' E 001°18'0 0.0
2017-Nov-10 03:29N 51°58' E 001°18'0 0.0
2017-Nov-10 02:59N 51°58' E 001°18'0 0.0
2017-Nov-10 02:29N 51°58' E 001°18'0 0.0
2017-Nov-10 01:59N 51°58' E 001°18'0 0.0
2017-Nov-10 01:29N 51°58' E 001°18'0 0.0
2017-Nov-10 00:59N 51°58' E 001°18'0 0.0
2017-Nov-10 00:29N 51°58' E 001°18'0 0.0
2017-Nov-09 23:59N 51°58' E 001°18'0 0.0
2017-Nov-09 23:29N 51°58' E 001°18'0 0.0
2017-Nov-09 22:59N 51°58' E 001°18'0 0.0
2017-Nov-09 22:29N 51°58' E 001°18'0 0.0
2017-Nov-09 21:59N 51°58' E 001°18'0 0.0
2017-Nov-09 21:29N 51°58' E 001°18'0 0.0
2017-Nov-09 20:59N 51°58' E 001°18'0 0.0
2017-Nov-09 20:29N 51°58' E 001°18'0 0.0
2017-Nov-09 19:59N 51°58' E 001°18'  

Dump ship's entire track history